Terminal Aerodrome Forecast
Issued by NWS Bismarck, ND

Home | Current Version | Previous Version | Text Only | Print | Product List | Glossary On
Versions: 1 2 3 4 5 6 7 8 9 10 11 12
457
FTUS43 KBIS 191725
TAFBIS
TAF
KBIS 191725Z 1918/2018 21010KT P6SM FEW090 FEW250
     FM200000 33012G20KT P6SM FEW120 SCT250
     FM200200 35008KT P6SM BKN130 BKN200=

USA.gov is the U.S. government's official web portal to all federal, state and local government web resources and services.